Time;durP1;ratioP1;P1;durP2;ratioP2;P2;SDS_P1;SDS_P2;PMS_P1;PMS_P2;Temp;Humidity;BMP_temperature;BMP_pressure;BME280_temperature;BME280_humidity;BME280_pressure;Samples;Min_cycle;Max_cycle;Signal;HPM_P1;HPM_P2
2022/04/30 00:02:08;;;;;;;;;;;12.60;88.90;;;;;;4992678;28;19934;-79
2022/04/30 00:04:35;;;;;;;;;;;12.60;88.20;;;;;;4994509;28;19933;-80
2022/04/30 00:07:04;;;;;;;;;;;12.60;88.30;;;;;;4987603;28;19933;-80
2022/04/30 00:09:31;;;;;;;;;;;12.60;88.30;;;;;;5010509;28;19933;-79
2022/04/30 00:11:59;;;;;;;;;;;12.60;88.20;;;;;;5010046;28;19929;-80
2022/04/30 00:14:26;;;;;;;;;;;12.50;88.20;;;;;;5006358;28;19930;-80
2022/04/30 00:16:53;;;;;;;;;;;12.50;88.10;;;;;;5014818;28;19926;-79
2022/04/30 00:19:21;;;;;;;;;;;12.50;88.20;;;;;;5009481;28;20331;-79
2022/04/30 00:21:48;;;;;;;;;;;12.50;88.20;;;;;;5005166;28;20415;-80
2022/04/30 00:24:17;;;;;;;;;;;12.50;88.20;;;;;;5004274;28;19951;-79
2022/04/30 00:26:44;;;;;;;;;;;12.40;88.20;;;;;;5004307;28;20020;-78
2022/04/30 00:29:11;;;;;;;;;;;12.40;88.30;;;;;;4988858;28;19926;-79
2022/04/30 00:31:38;;;;;;;;;;;12.40;88.40;;;;;;5004959;28;20367;-80
2022/04/30 00:34:05;;;;;;;;;;;12.40;88.30;;;;;;5071937;23;19934;-81
2022/04/30 00:36:32;;;;;;;;;;;12.40;88.40;;;;;;4994387;28;19926;-82
2022/04/30 00:38:58;;;;;;;;;;;12.30;88.30;;;;;;4997792;28;19926;-82
2022/04/30 00:41:27;;;;;;;;;;;12.30;88.40;;;;;;4981532;28;19926;-82
2022/04/30 00:43:56;;;;;;;;;;;12.30;88.40;;;;;;4983309;28;19925;-81
2022/04/30 00:46:23;;;;;;;;;;;12.30;88.50;;;;;;4994412;28;19985;-82
2022/04/30 00:48:51;;;;;;;;;;;12.30;88.50;;;;;;4981823;28;19936;-82
2022/04/30 00:51:19;;;;;;;;;;;12.20;89.10;;;;;;4994028;28;19932;-82
2022/04/30 00:53:46;;;;;;;;;;;12.20;88.60;;;;;;4992522;28;19945;-81
2022/04/30 00:56:14;;;;;;;;;;;12.20;88.60;;;;;;4978843;28;19954;-81
2022/04/30 00:58:44;;;;;;;;;;;12.20;88.60;;;;;;4991612;28;20001;-82
2022/04/30 01:01:11;;;;;;;;;;;12.20;88.70;;;;;;4994778;28;20303;-81
2022/04/30 01:04:07;;;;;;;;;;;12.20;88.70;;;;;;4962506;28;20012;-81
2022/04/30 01:06:39;;;;;;;;;;;12.10;88.70;;;;;;4977296;28;19936;-82
2022/04/30 01:09:06;;;;;;;;;;;12.10;88.80;;;;;;4993859;28;19930;-82
2022/04/30 01:11:34;;;;;;;;;;;12.10;88.80;;;;;;4991976;28;19925;-82
2022/04/30 01:14:04;;;;;;;;;;;12.10;88.70;;;;;;4999301;28;20052;-82
2022/04/30 01:21:27;;;;;;;;;;;12.00;88.70;;;;;;4944411;23;19926;-85
2022/04/30 01:23:56;;;;;;;;;;;12.00;88.80;;;;;;4992866;23;19926;-83
2022/04/30 01:26:23;;;;;;;;;;;12.00;88.80;;;;;;5010521;23;19932;-83
2022/04/30 01:39:56;;;;;;;;;;;11.90;89.60;;;;;;4952478;28;19926;-81
2022/04/30 01:42:24;;;;;;;;;;;11.90;89.00;;;;;;4960815;28;19929;-82
2022/04/30 01:44:51;;;;;;;;;;;11.90;89.10;;;;;;4958599;28;20088;-81
2022/04/30 01:47:19;;;;;;;;;;;11.90;89.10;;;;;;4979530;28;19932;-81
2022/04/30 01:49:45;;;;;;;;;;;11.80;89.00;;;;;;4976872;28;19933;-81
2022/04/30 01:52:13;;;;;;;;;;;11.80;89.10;;;;;;4975138;28;20021;-81
2022/04/30 01:54:40;;;;;;;;;;;11.80;89.10;;;;;;4977427;28;19998;-81
2022/04/30 01:57:09;;;;;;;;;;;11.80;89.10;;;;;;4985131;28;19930;-81
2022/04/30 01:59:37;;;;;;;;;;;11.80;89.20;;;;;;4978910;28;19925;-81
2022/04/30 02:02:04;;;;;;;;;;;11.70;89.10;;;;;;4981080;28;19944;-81
2022/04/30 02:04:32;;;;;;;;;;;11.70;89.10;;;;;;4972275;28;20009;-81
2022/04/30 02:07:00;;;;;;;;;;;11.70;89.10;;;;;;4985136;28;19958;-81
2022/04/30 02:09:28;;;;;;;;;;;11.70;89.20;;;;;;4975950;28;19926;-81
2022/04/30 02:11:57;;;;;;;;;;;11.70;89.20;;;;;;4980646;28;19927;-81
2022/04/30 02:14:28;;;;;;;;;;;11.70;89.30;;;;;;4963624;28;19980;-81
2022/04/30 02:16:55;;;;;;;;;;;11.70;89.20;;;;;;4973386;28;19934;-81
2022/04/30 02:19:22;;;;;;;;;;;11.60;89.30;;;;;;4977271;28;19926;-80
2022/04/30 02:21:49;;;;;;;;;;;11.60;89.30;;;;;;4971746;28;19934;-81
2022/04/30 02:24:16;;;;;;;;;;;11.60;89.30;;;;;;4965473;28;19934;-80
2022/04/30 02:26:43;;;;;;;;;;;11.60;89.30;;;;;;4981743;28;19963;-80
2022/04/30 02:29:11;;;;;;;;;;;11.60;89.40;;;;;;4971809;28;20447;-81
2022/04/30 02:31:40;;;;;;;;;;;11.60;89.70;;;;;;4977449;28;19969;-81
2022/04/30 02:34:06;;;;;;;;;;;11.60;89.90;;;;;;4981192;28;20021;-81
2022/04/30 02:36:35;;;;;;;;;;;11.60;90.00;;;;;;4979519;28;20408;-81
2022/04/30 02:39:02;;;;;;;;;;;11.50;89.90;;;;;;4978407;28;20328;-81
2022/04/30 02:41:29;;;;;;;;;;;11.50;89.90;;;;;;4974288;28;19927;-81
2022/04/30 02:43:58;;;;;;;;;;;11.50;89.90;;;;;;4973897;28;19926;-81
2022/04/30 02:46:24;;;;;;;;;;;11.50;89.90;;;;;;4984145;28;19926;-81
2022/04/30 02:48:53;;;;;;;;;;;11.50;90.00;;;;;;4970850;28;19955;-81
2022/04/30 02:51:20;;;;;;;;;;;11.50;90.00;;;;;;4976316;28;20372;-81
2022/04/30 02:53:47;;;;;;;;;;;11.50;90.00;;;;;;4975561;28;19950;-82
2022/04/30 02:56:14;;;;;;;;;;;11.50;90.00;;;;;;4975201;28;19934;-81
2022/04/30 03:01:25;;;;;;;;;;;11.40;90.00;;;;;;4988853;28;20054;-81
2022/04/30 03:04:16;;;;;;;;;;;11.40;90.00;;;;;;4967604;28;19926;-81
2022/04/30 03:06:46;;;;;;;;;;;11.40;90.10;;;;;;4978256;28;19950;-80
2022/04/30 03:09:13;;;;;;;;;;;11.40;90.20;;;;;;4975749;28;19926;-81
2022/04/30 03:11:40;;;;;;;;;;;11.40;90.30;;;;;;4980075;28;19997;-81
2022/04/30 03:14:07;;;;;;;;;;;11.40;90.30;;;;;;4979578;28;19930;-81
2022/04/30 03:22:05;;;;;;;;;;;11.30;90.30;;;;;;4974140;28;19926;-80
2022/04/30 03:24:32;;;;;;;;;;;11.30;90.20;;;;;;4983231;28;20008;-81
2022/04/30 03:26:59;;;;;;;;;;;11.30;90.20;;;;;;4975568;28;20013;-82
2022/04/30 03:29:26;;;;;;;;;;;11.30;90.30;;;;;;4974108;28;19943;-82
2022/04/30 03:31:53;;;;;;;;;;;11.30;90.30;;;;;;4989822;28;20379;-81
2022/04/30 03:34:21;;;;;;;;;;;11.30;90.30;;;;;;4975944;28;19926;-82
2022/04/30 03:36:48;;;;;;;;;;;11.20;90.30;;;;;;4979841;28;19926;-82
2022/04/30 03:39:15;;;;;;;;;;;11.20;90.30;;;;;;4975944;28;20290;-82
2022/04/30 03:41:42;;;;;;;;;;;11.20;90.40;;;;;;4975321;28;19953;-81
2022/04/30 03:44:09;;;;;;;;;;;11.20;90.50;;;;;;4988446;28;19930;-82
2022/04/30 03:46:36;;;;;;;;;;;11.20;90.50;;;;;;4969430;28;19933;-81
2022/04/30 03:49:04;;;;;;;;;;;11.20;90.40;;;;;;4973797;28;20412;-82
2022/04/30 03:51:32;;;;;;;;;;;11.10;90.40;;;;;;4978154;28;19938;-82
2022/04/30 03:53:59;;;;;;;;;;;11.10;90.40;;;;;;4974512;28;20136;-81
2022/04/30 03:56:26;;;;;;;;;;;11.10;90.40;;;;;;4978425;28;19925;-82
2022/04/30 03:58:53;;;;;;;;;;;11.10;90.40;;;;;;4971675;28;19926;-82
2022/04/30 04:01:20;;;;;;;;;;;11.10;90.40;;;;;;4974200;28;19926;-81
2022/04/30 04:03:48;;;;;;;;;;;11.10;90.40;;;;;;4974851;28;19927;-82
2022/04/30 04:06:16;;;;;;;;;;;11.10;90.40;;;;;;4972544;28;19927;-82
2022/04/30 04:08:44;;;;;;;;;;;11.10;90.40;;;;;;4984417;28;20018;-82
2022/04/30 04:11:13;;;;;;;;;;;11.00;90.30;;;;;;4965615;28;19930;-82
2022/04/30 04:19:09;;;;;;;;;;;11.00;90.30;;;;;;4994735;28;20025;-82
2022/04/30 04:21:36;;;;;;;;;;;11.00;90.40;;;;;;4983760;28;19926;-81
2022/04/30 04:26:50;;;;;;;;;;;11.00;90.40;;;;;;4977331;28;20076;-82
2022/04/30 04:29:16;;;;;;;;;;;11.00;90.40;;;;;;4962831;28;21447;-82
2022/04/30 04:31:44;;;;;;;;;;;10.90;90.40;;;;;;4973741;28;20017;-81
2022/04/30 04:34:11;;;;;;;;;;;10.90;90.40;;;;;;4976765;28;20323;-83
2022/04/30 04:36:38;;;;;;;;;;;10.90;90.50;;;;;;4990515;28;20035;-82
2022/04/30 04:39:10;;;;;;;;;;;10.90;90.50;;;;;;4968827;28;19953;-82
2022/04/30 04:41:36;;;;;;;;;;;10.90;90.50;;;;;;4973360;28;20002;-82
2022/04/30 04:44:03;;;;;;;;;;;10.90;90.50;;;;;;4980713;28;19941;-82
2022/04/30 04:46:30;;;;;;;;;;;10.90;90.60;;;;;;4972281;28;19973;-81
2022/04/30 04:48:57;;;;;;;;;;;10.90;91.00;;;;;;4978929;28;19930;-82
2022/04/30 04:51:24;;;;;;;;;;;10.90;90.80;;;;;;4994012;28;20653;-82
2022/04/30 04:53:51;;;;;;;;;;;10.80;90.70;;;;;;4979637;28;19934;-81
2022/04/30 04:56:20;;;;;;;;;;;10.80;90.70;;;;;;4981817;28;20447;-83
2022/04/30 04:58:46;;;;;;;;;;;10.80;90.70;;;;;;4959553;28;19945;-83
2022/04/30 05:01:13;;;;;;;;;;;10.80;91.00;;;;;;4977479;28;20293;-81
2022/04/30 05:03:40;;;;;;;;;;;10.80;90.70;;;;;;4976430;28;20021;-82
2022/04/30 05:06:07;;;;;;;;;;;10.80;90.70;;;;;;4959501;28;19937;-82
2022/04/30 05:08:34;;;;;;;;;;;10.80;90.80;;;;;;4976496;28;20396;-82
2022/04/30 05:11:01;;;;;;;;;;;10.80;90.90;;;;;;4982322;28;19927;-82
2022/04/30 05:13:29;;;;;;;;;;;10.80;91.00;;;;;;4983072;28;19926;-82
2022/04/30 05:15:56;;;;;;;;;;;10.80;91.00;;;;;;4979058;28;19937;-81
2022/04/30 05:18:23;;;;;;;;;;;10.70;91.00;;;;;;4984910;28;19938;-82
2022/04/30 05:20:50;;;;;;;;;;;10.70;91.00;;;;;;4964496;28;20253;-82
2022/04/30 05:23:17;;;;;;;;;;;10.70;91.00;;;;;;4978245;28;19932;-82
2022/04/30 05:25:44;;;;;;;;;;;10.70;91.10;;;;;;4977191;28;19932;-82
2022/04/30 05:28:11;;;;;;;;;;;10.70;91.20;;;;;;4979349;28;20300;-83
2022/04/30 05:30:39;;;;;;;;;;;10.70;91.30;;;;;;4978599;28;19934;-82
2022/04/30 05:33:06;;;;;;;;;;;10.70;91.30;;;;;;4975899;28;19926;-82
2022/04/30 05:35:33;;;;;;;;;;;10.70;91.30;;;;;;4982584;28;20328;-83
2022/04/30 05:38:00;;;;;;;;;;;10.70;91.30;;;;;;4972599;28;19973;-82
2022/04/30 05:40:27;;;;;;;;;;;10.70;91.30;;;;;;4971014;28;19997;-81
2022/04/30 05:42:54;;;;;;;;;;;10.70;91.20;;;;;;4976333;28;20846;-82
2022/04/30 05:45:21;;;;;;;;;;;10.70;91.20;;;;;;4978696;28;19954;-82
2022/04/30 05:47:49;;;;;;;;;;;10.70;91.20;;;;;;4971176;28;19926;-82
2022/04/30 05:50:16;;;;;;;;;;;10.70;91.20;;;;;;4982674;28;19936;-82
2022/04/30 05:52:43;;;;;;;;;;;10.60;91.10;;;;;;4980173;28;19937;-81
2022/04/30 05:55:11;;;;;;;;;;;10.60;91.10;;;;;;4974893;28;19927;-82
2022/04/30 05:57:38;;;;;;;;;;;10.60;91.10;;;;;;4972500;28;20352;-82
2022/04/30 06:00:05;;;;;;;;;;;10.60;91.20;;;;;;4978723;28;19961;-82
2022/04/30 06:02:32;;;;;;;;;;;10.60;91.20;;;;;;4976071;28;19989;-82
2022/04/30 06:05:00;;;;;;;;;;;10.70;91.30;;;;;;4987383;28;19926;-81
2022/04/30 06:07:27;;;;;;;;;;;10.60;91.30;;;;;;4984475;28;20395;-82
2022/04/30 06:09:54;;;;;;;;;;;10.60;91.30;;;;;;4984063;28;19941;-81
2022/04/30 06:12:21;;;;;;;;;;;10.60;91.40;;;;;;4966603;28;20538;-81
2022/04/30 06:14:48;;;;;;;;;;;10.60;91.70;;;;;;4973207;28;19926;-82
2022/04/30 06:17:15;;;;;;;;;;;10.60;91.40;;;;;;4978160;28;19985;-82
2022/04/30 06:19:42;;;;;;;;;;;10.60;91.50;;;;;;4990593;28;20407;-82
2022/04/30 06:22:11;;;;;;;;;;;10.60;91.60;;;;;;4972701;28;20308;-81
2022/04/30 06:24:38;;;;;;;;;;;10.60;91.70;;;;;;4971655;28;19926;-81
2022/04/30 06:27:05;;;;;;;;;;;10.60;91.80;;;;;;4981127;28;19926;-81
2022/04/30 06:29:32;;;;;;;;;;;10.60;92.00;;;;;;4965559;28;19958;-80
2022/04/30 06:31:59;;;;;;;;;;;10.60;92.10;;;;;;4990744;28;19933;-82
2022/04/30 06:34:26;;;;;;;;;;;10.60;92.30;;;;;;4973759;28;19930;-81
2022/04/30 06:36:53;;;;;;;;;;;10.60;92.40;;;;;;4979939;28;20379;-81
2022/04/30 06:39:22;;;;;;;;;;;10.60;92.50;;;;;;4974577;28;19981;-82
2022/04/30 06:41:49;;;;;;;;;;;10.60;92.70;;;;;;4987278;28;20036;-82
2022/04/30 06:44:16;;;;;;;;;;;10.60;92.80;;;;;;5044451;23;19926;-75
2022/04/30 06:46:44;;;;;;;;;;;10.60;92.90;;;;;;4980967;28;20384;-74
2022/04/30 06:49:11;;;;;;;;;;;10.60;92.90;;;;;;4975125;28;21315;-75
2022/04/30 06:51:38;;;;;;;;;;;10.60;93.00;;;;;;4960141;28;20298;-74
2022/04/30 06:57:11;;;;;;;;;;;10.70;93.60;;;;;;4958194;28;20024;-75
2022/04/30 06:59:40;;;;;;;;;;;10.70;93.50;;;;;;4959631;28;19925;-75
2022/04/30 07:02:12;;;;;;;;;;;10.70;93.90;;;;;;4958183;28;19934;-75
2022/04/30 07:04:40;;;;;;;;;;;10.70;93.90;;;;;;4966765;28;20393;-75
2022/04/30 07:07:07;;;;;;;;;;;10.70;94.00;;;;;;4931812;28;19936;-74
2022/04/30 07:09:34;;;;;;;;;;;10.70;94.10;;;;;;4963086;28;19934;-74
2022/04/30 07:12:04;;;;;;;;;;;10.70;94.10;;;;;;4962504;28;19934;-74
2022/04/30 07:14:32;;;;;;;;;;;10.70;94.80;;;;;;4952968;28;20305;-75
2022/04/30 07:17:01;;;;;;;;;;;10.70;94.80;;;;;;4959905;28;20211;-75
2022/04/30 07:19:28;;;;;;;;;;;10.70;94.80;;;;;;4961657;28;21068;-75
2022/04/30 07:21:55;;;;;;;;;;;10.80;94.90;;;;;;4961470;28;20016;-74
2022/04/30 07:24:22;;;;;;;;;;;10.80;94.70;;;;;;4953576;28;19927;-75
2022/04/30 07:26:50;;;;;;;;;;;10.80;94.80;;;;;;4957797;28;19950;-74
2022/04/30 07:29:19;;;;;;;;;;;10.80;95.20;;;;;;4951144;28;19941;-75
2022/04/30 07:31:46;;;;;;;;;;;10.80;95.00;;;;;;4964153;28;20637;-74
2022/04/30 07:34:13;;;;;;;;;;;10.80;95.00;;;;;;4941872;28;19930;-75
2022/04/30 07:36:40;;;;;;;;;;;10.80;95.30;;;;;;4964452;28;19926;-74
2022/04/30 07:39:08;;;;;;;;;;;10.80;95.10;;;;;;4955131;28;19933;-76
2022/04/30 07:41:35;;;;;;;;;;;10.80;95.30;;;;;;4946141;28;19941;-72
2022/04/30 07:44:02;;;;;;;;;;;10.90;98.80;;;;;;4955550;28;20388;-75
2022/04/30 07:46:30;;;;;;;;;;;10.90;97.90;;;;;;4967129;28;19930;-74
2022/04/30 07:48:57;;;;;;;;;;;10.90;97.30;;;;;;4957740;28;19952;-74
2022/04/30 07:51:34;;;;;;;;;;;10.90;96.90;;;;;;4963558;28;19945;-74
2022/04/30 07:54:01;;;;;;;;;;;10.90;96.70;;;;;;4963120;28;19930;-75
2022/04/30 07:56:28;;;;;;;;;;;10.90;96.50;;;;;;4959396;28;19927;-74
2022/04/30 07:58:55;;;;;;;;;;;10.90;96.30;;;;;;4965116;28;19969;-74
2022/04/30 08:01:22;;;;;;;;;;;11.00;96.30;;;;;;4961376;28;20512;-75
2022/04/30 08:03:59;;;;;;;;;;;11.00;96.40;;;;;;4966513;28;19937;-75
2022/04/30 08:06:31;;;;;;;;;;;11.00;96.40;;;;;;4948243;28;19937;-75
2022/04/30 08:08:58;;;;;;;;;;;11.00;96.20;;;;;;4963257;28;19927;-76
2022/04/30 08:11:25;;;;;;;;;;;11.00;96.60;;;;;;4960574;28;19933;-75
2022/04/30 08:13:52;;;;;;;;;;;11.00;96.50;;;;;;4964061;28;19958;-74
2022/04/30 08:16:19;;;;;;;;;;;11.00;96.40;;;;;;4965026;28;19981;-76
2022/04/30 08:18:46;;;;;;;;;;;11.00;96.30;;;;;;4950194;28;20029;-75
2022/04/30 08:21:14;;;;;;;;;;;11.10;96.70;;;;;;4963547;28;19958;-75
2022/04/30 08:23:41;;;;;;;;;;;11.10;96.20;;;;;;4958140;28;19931;-75
2022/04/30 08:26:08;;;;;;;;;;;11.10;96.10;;;;;;4960977;28;19934;-74
2022/04/30 08:28:35;;;;;;;;;;;11.10;96.00;;;;;;4957812;28;19973;-75
2022/04/30 08:31:02;;;;;;;;;;;11.10;96.00;;;;;;4933928;28;19926;-76
2022/04/30 08:33:29;;;;;;;;;;;11.10;96.00;;;;;;4960865;28;19930;-75
2022/04/30 08:35:57;;;;;;;;;;;11.10;96.00;;;;;;4963979;28;19940;-75
2022/04/30 08:38:25;;;;;;;;;;;11.10;96.30;;;;;;4960347;28;19932;-76
2022/04/30 08:40:52;;;;;;;;;;;11.20;96.10;;;;;;4958281;28;19942;-78
2022/04/30 08:43:20;;;;;;;;;;;11.20;95.90;;;;;;4955045;28;19930;-75
2022/04/30 08:45:47;;;;;;;;;;;11.20;96.10;;;;;;4960066;28;19926;-75
2022/04/30 08:48:15;;;;;;;;;;;11.20;95.90;;;;;;4956764;28;20381;-76
2022/04/30 08:50:42;;;;;;;;;;;11.20;95.70;;;;;;4959377;28;19934;-77
2022/04/30 08:53:10;;;;;;;;;;;11.20;95.90;;;;;;4964839;28;19926;-76
2022/04/30 08:55:39;;;;;;;;;;;11.20;96.20;;;;;;4963691;28;19932;-74
2022/04/30 08:58:06;;;;;;;;;;;11.20;96.20;;;;;;4964548;28;19941;-75
2022/04/30 09:00:39;;;;;;;;;;;11.20;96.30;;;;;;4963037;28;19934;-74
2022/04/30 09:03:06;;;;;;;;;;;11.30;96.30;;;;;;4962186;28;19933;-74
2022/04/30 09:05:35;;;;;;;;;;;11.30;96.60;;;;;;4966583;28;19968;-75
2022/04/30 09:08:01;;;;;;;;;;;11.30;96.70;;;;;;4960733;28;19926;-74
2022/04/30 09:10:30;;;;;;;;;;;11.30;96.70;;;;;;4969252;28;19926;-75
2022/04/30 09:13:05;;;;;;;;;;;11.30;97.00;;;;;;4953192;28;20024;-75
2022/04/30 09:15:33;;;;;;;;;;;11.40;97.10;;;;;;4966096;28;20452;-74
2022/04/30 09:18:00;;;;;;;;;;;11.40;97.30;;;;;;4962883;28;19930;-74
2022/04/30 09:20:28;;;;;;;;;;;11.40;97.80;;;;;;4960101;28;19934;-75
2022/04/30 09:22:55;;;;;;;;;;;11.50;98.00;;;;;;4962882;28;19938;-75
2022/04/30 09:25:21;;;;;;;;;;;11.50;98.00;;;;;;4960821;28;19930;-75
2022/04/30 09:27:50;;;;;;;;;;;11.50;97.60;;;;;;4960515;28;19930;-74
2022/04/30 09:30:19;;;;;;;;;;;11.50;98.60;;;;;;4963692;28;20011;-75
2022/04/30 09:32:46;;;;;;;;;;;11.50;99.00;;;;;;4961360;28;20468;-75
2022/04/30 09:38:04;;;;;;;;;;;11.60;98.60;;;;;;4964419;28;19922;-74
2022/04/30 09:40:31;;;;;;;;;;;11.60;98.60;;;;;;4962030;28;19956;-76
2022/04/30 09:43:00;;;;;;;;;;;11.60;98.70;;;;;;4966338;28;20324;-75
2022/04/30 09:45:31;;;;;;;;;;;11.60;98.80;;;;;;4961485;28;19932;-75
2022/04/30 09:47:59;;;;;;;;;;;11.60;98.60;;;;;;4963042;28;19944;-74
2022/04/30 09:55:57;;;;;;;;;;;11.70;98.80;;;;;;4961262;28;19933;-74
2022/04/30 09:58:25;;;;;;;;;;;11.70;98.70;;;;;;4958455;28;19926;-75
2022/04/30 10:00:57;;;;;;;;;;;11.70;98.40;;;;;;4959952;28;20385;-75
2022/04/30 10:03:26;;;;;;;;;;;11.70;98.40;;;;;;4954026;28;20575;-73
2022/04/30 10:05:56;;;;;;;;;;;11.70;97.90;;;;;;4956518;28;19926;-75
2022/04/30 10:08:24;;;;;;;;;;;11.70;97.90;;;;;;4959674;28;20377;-74
2022/04/30 10:10:54;;;;;;;;;;;11.70;97.90;;;;;;4960238;28;19941;-75
2022/04/30 10:13:24;;;;;;;;;;;11.70;97.80;;;;;;4960063;28;20054;-74
2022/04/30 10:15:51;;;;;;;;;;;11.80;97.90;;;;;;4965779;28;19926;-74
2022/04/30 10:18:24;;;;;;;;;;;11.80;97.70;;;;;;4965339;28;20395;-74
2022/04/30 10:20:51;;;;;;;;;;;11.80;97.70;;;;;;4962846;28;20054;-73
2022/04/30 10:23:18;;;;;;;;;;;11.80;97.70;;;;;;4969962;28;19968;-74
2022/04/30 10:25:46;;;;;;;;;;;11.80;97.90;;;;;;4965450;28;20604;-75
2022/04/30 10:28:22;;;;;;;;;;;11.80;97.90;;;;;;4959781;28;19934;-74
2022/04/30 10:30:58;;;;;;;;;;;11.80;98.00;;;;;;4957864;28;21898;-74
2022/04/30 10:33:27;;;;;;;;;;;11.80;97.70;;;;;;4959420;28;19934;-73
2022/04/30 10:36:04;;;;;;;;;;;11.80;97.90;;;;;;4961732;28;19933;-73
2022/04/30 10:38:31;;;;;;;;;;;11.80;97.90;;;;;;4956256;28;19934;-73
2022/04/30 10:41:00;;;;;;;;;;;11.80;97.90;;;;;;4958732;28;20293;-75
2022/04/30 10:43:31;;;;;;;;;;;11.80;98.00;;;;;;4951261;28;20393;-74
2022/04/30 10:45:59;;;;;;;;;;;11.90;98.00;;;;;;4938226;28;20389;-74
2022/04/30 10:48:28;;;;;;;;;;;11.90;98.00;;;;;;4954677;28;20016;-74
2022/04/30 10:51:03;;;;;;;;;;;11.90;97.80;;;;;;4956486;28;19934;-74
2022/04/30 10:53:31;;;;;;;;;;;11.90;98.00;;;;;;4965029;28;19933;-74
2022/04/30 10:55:58;;;;;;;;;;;11.90;97.70;;;;;;4965325;28;19957;-74
2022/04/30 10:58:26;;;;;;;;;;;11.90;97.70;;;;;;4961710;28;19930;-75
2022/04/30 11:00:53;;;;;;;;;;;11.90;97.80;;;;;;4951070;28;19942;-74
2022/04/30 11:03:26;;;;;;;;;;;11.90;97.80;;;;;;4952932;28;19930;-75
2022/04/30 11:05:55;;;;;;;;;;;11.90;97.90;;;;;;4963777;28;19926;-75
2022/04/30 11:08:23;;;;;;;;;;;11.90;97.90;;;;;;4960839;28;20296;-75
2022/04/30 11:10:51;;;;;;;;;;;11.90;97.80;;;;;;4960812;28;20633;-75
2022/04/30 11:13:18;;;;;;;;;;;11.90;97.80;;;;;;4961654;28;20308;-76
2022/04/30 11:15:46;;;;;;;;;;;12.00;98.00;;;;;;4959286;28;20028;-77
2022/04/30 11:18:14;;;;;;;;;;;12.00;97.80;;;;;;4953317;28;20397;-76
2022/04/30 11:20:42;;;;;;;;;;;12.00;97.80;;;;;;4953540;28;19930;-76
2022/04/30 11:23:21;;;;;;;;;;;12.00;97.80;;;;;;4944858;28;20024;-75
2022/04/30 11:25:48;;;;;;;;;;;12.00;97.60;;;;;;4963390;28;19937;-77
2022/04/30 11:28:15;;;;;;;;;;;12.00;98.30;;;;;;4957783;28;19934;-75
2022/04/30 11:30:43;;;;;;;;;;;12.00;98.40;;;;;;4963653;28;19926;-75
2022/04/30 11:33:10;;;;;;;;;;;12.00;98.40;;;;;;4950589;28;20044;-75
2022/04/30 11:35:38;;;;;;;;;;;12.00;98.40;;;;;;4953438;28;20381;-76
2022/04/30 11:38:09;;;;;;;;;;;12.00;98.50;;;;;;4938700;28;20025;-77
2022/04/30 11:40:41;;;;;;;;;;;12.00;98.60;;;;;;4942094;28;19945;-78
2022/04/30 11:43:08;;;;;;;;;;;12.00;98.40;;;;;;4939417;28;19934;-75
2022/04/30 11:45:36;;;;;;;;;;;12.00;98.40;;;;;;4937913;28;19942;-76
2022/04/30 11:48:04;;;;;;;;;;;12.00;98.40;;;;;;4939867;28;19934;-76
2022/04/30 11:50:33;;;;;;;;;;;12.00;98.50;;;;;;4942176;28;19937;-77
2022/04/30 11:53:01;;;;;;;;;;;12.00;98.30;;;;;;4939309;28;19930;-77
2022/04/30 11:55:29;;;;;;;;;;;12.00;98.40;;;;;;4938798;28;19930;-75
2022/04/30 11:58:05;;;;;;;;;;;12.00;98.40;;;;;;4948955;28;19938;-76
2022/04/30 12:00:34;;;;;;;;;;;12.00;98.40;;;;;;4962571;28;20621;-76
2022/04/30 12:03:01;;;;;;;;;;;12.00;98.50;;;;;;4964582;28;19930;-75
2022/04/30 12:05:31;;;;;;;;;;;11.90;98.40;;;;;;4964030;28;19934;-75
2022/04/30 12:08:01;;;;;;;;;;;11.90;98.40;;;;;;4953955;28;19926;-76
2022/04/30 12:10:28;;;;;;;;;;;11.90;98.40;;;;;;4969260;28;19934;-77
2022/04/30 12:12:57;;;;;;;;;;;11.90;98.40;;;;;;4942913;28;19926;-77
2022/04/30 12:15:26;;;;;;;;;;;11.90;98.40;;;;;;4935982;28;19930;-76
2022/04/30 12:26:25;;;;;;;;;;;11.90;98.60;;;;;;4947749;28;19936;-76
2022/04/30 12:28:54;;;;;;;;;;;11.90;98.70;;;;;;4919476;28;19981;-78
2022/04/30 12:31:22;;;;;;;;;;;11.90;98.80;;;;;;4943944;28;19969;-76
2022/04/30 12:33:50;;;;;;;;;;;11.90;98.80;;;;;;4931028;28;21692;-77
2022/04/30 12:36:18;;;;;;;;;;;11.80;98.80;;;;;;4944994;28;19934;-77
2022/04/30 12:38:54;;;;;;;;;;;11.80;99.20;;;;;;4945337;28;19940;-76
2022/04/30 12:41:23;;;;;;;;;;;11.80;99.00;;;;;;4962838;28;19926;-75
2022/04/30 12:43:50;;;;;;;;;;;11.80;98.90;;;;;;5024518;23;19926;-77
2022/04/30 12:46:22;;;;;;;;;;;11.80;98.90;;;;;;4981882;28;19965;-76
2022/04/30 12:48:50;;;;;;;;;;;11.80;99.00;;;;;;4970701;28;20439;-76
2022/04/30 12:51:19;;;;;;;;;;;11.80;99.10;;;;;;4938048;28;19930;-76
2022/04/30 12:53:46;;;;;;;;;;;11.80;99.10;;;;;;4976412;28;20396;-77
2022/04/30 12:56:13;;;;;;;;;;;11.80;99.00;;;;;;4963479;28;19933;-77
2022/04/30 12:58:40;;;;;;;;;;;11.80;99.00;;;;;;4973458;28;19934;-78
2022/04/30 13:01:08;;;;;;;;;;;11.70;98.90;;;;;;4956857;28;19936;-76
2022/04/30 13:03:36;;;;;;;;;;;11.70;98.90;;;;;;4970326;28;19933;-77
2022/04/30 13:06:04;;;;;;;;;;;11.70;98.80;;;;;;4956951;28;19944;-76
2022/04/30 13:14:05;;;;;;;;;;;11.70;98.90;;;;;;4926327;28;20392;-77
2022/04/30 13:16:32;;;;;;;;;;;11.70;98.90;;;;;;4959270;28;19960;-77
2022/04/30 13:19:01;;;;;;;;;;;11.70;98.80;;;;;;4986212;28;19930;-77
2022/04/30 13:21:29;;;;;;;;;;;11.70;98.90;;;;;;4982386;28;20000;-77
2022/04/30 13:23:56;;;;;;;;;;;11.70;98.90;;;;;;4982200;28;20393;-77
2022/04/30 13:26:23;;;;;;;;;;;11.70;99.00;;;;;;4941531;28;19933;-77
2022/04/30 13:28:50;;;;;;;;;;;11.70;99.30;;;;;;4958943;28;19934;-78
2022/04/30 13:31:17;;;;;;;;;;;11.70;99.40;;;;;;4954960;28;20476;-77
2022/04/30 13:33:44;;;;;;;;;;;11.70;99.40;;;;;;4957884;28;19934;-77
2022/04/30 13:36:13;;;;;;;;;;;11.80;99.80;;;;;;4959766;28;20076;-77
2022/04/30 13:38:41;;;;;;;;;;;11.80;99.90;;;;;;4957825;28;20228;-77
2022/04/30 13:41:08;;;;;;;;;;;11.80;99.90;;;;;;4956867;28;20304;-76
2022/04/30 13:43:35;;;;;;;;;;;11.80;99.90;;;;;;4977558;28;19934;-78
2022/04/30 13:46:03;;;;;;;;;;;11.80;99.90;;;;;;4982082;28;20020;-77
2022/04/30 13:48:31;;;;;;;;;;;11.80;99.90;;;;;;4977251;28;19940;-77
2022/04/30 13:50:58;;;;;;;;;;;11.90;99.90;;;;;;4983569;28;20506;-77
2022/04/30 13:53:26;;;;;;;;;;;11.90;99.90;;;;;;4997060;28;19941;-77
2022/04/30 13:55:53;;;;;;;;;;;11.90;99.90;;;;;;5001278;28;19929;-77
2022/04/30 13:58:20;;;;;;;;;;;11.90;99.90;;;;;;5003396;28;19983;-77
2022/04/30 14:00:47;;;;;;;;;;;11.90;99.90;;;;;;4976925;28;19926;-77
2022/04/30 14:03:14;;;;;;;;;;;11.90;99.90;;;;;;4985717;28;19941;-78
2022/04/30 14:05:41;;;;;;;;;;;12.00;99.90;;;;;;4999247;28;19995;-77
2022/04/30 14:08:09;;;;;;;;;;;11.90;99.90;;;;;;4992807;28;20466;-77
2022/04/30 14:10:38;;;;;;;;;;;12.00;99.90;;;;;;4996570;28;19929;-77
2022/04/30 14:15:49;;;;;;;;;;;12.00;99.90;;;;;;4999872;28;20103;-78
2022/04/30 14:18:18;;;;;;;;;;;12.00;99.90;;;;;;5000355;28;19929;-77
2022/04/30 14:20:45;;;;;;;;;;;12.00;99.90;;;;;;4979659;28;20234;-77
2022/04/30 14:23:12;;;;;;;;;;;12.10;99.90;;;;;;4990541;28;20418;-77
2022/04/30 14:25:42;;;;;;;;;;;12.10;99.90;;;;;;4993828;28;19926;-78
2022/04/30 14:28:10;;;;;;;;;;;12.10;99.90;;;;;;4992993;28;19980;-78
2022/04/30 14:30:38;;;;;;;;;;;12.20;99.90;;;;;;5001301;28;20096;-78
2022/04/30 14:33:05;;;;;;;;;;;12.20;99.90;;;;;;4993193;28;19945;-77
2022/04/30 14:35:32;;;;;;;;;;;12.20;99.90;;;;;;4998438;28;20379;-79
2022/04/30 14:37:59;;;;;;;;;;;12.20;99.90;;;;;;4993486;28;19925;-78
2022/04/30 14:40:28;;;;;;;;;;;12.30;99.90;;;;;;4974052;28;19937;-78
2022/04/30 14:42:57;;;;;;;;;;;12.30;99.90;;;;;;4991697;28;19933;-78
2022/04/30 14:45:24;;;;;;;;;;;12.30;99.90;;;;;;4989633;28;19941;-78
2022/04/30 14:47:51;;;;;;;;;;;12.40;99.90;;;;;;4990151;28;19988;-78
2022/04/30 14:50:19;;;;;;;;;;;12.40;99.90;;;;;;4995429;28;19926;-77
2022/04/30 14:52:47;;;;;;;;;;;12.50;99.90;;;;;;4992535;28;19940;-77
2022/04/30 14:55:14;;;;;;;;;;;12.40;99.90;;;;;;4989449;28;19929;-77
2022/04/30 14:57:41;;;;;;;;;;;12.50;99.90;;;;;;4988078;28;20346;-76
2022/04/30 15:00:10;;;;;;;;;;;12.50;99.90;;;;;;4991794;28;20091;-77
2022/04/30 15:02:37;;;;;;;;;;;12.50;99.90;;;;;;4974798;28;19934;-77
2022/04/30 15:05:04;;;;;;;;;;;12.50;99.90;;;;;;4976640;28;19991;-77
2022/04/30 15:07:32;;;;;;;;;;;12.50;99.90;;;;;;5001680;28;20358;-76
2022/04/30 15:09:58;;;;;;;;;;;12.60;99.90;;;;;;4986146;28;19929;-76
2022/04/30 15:12:25;;;;;;;;;;;12.60;99.90;;;;;;4994936;28;19925;-77
2022/04/30 15:14:52;;;;;;;;;;;12.60;99.90;;;;;;4991264;28;19925;-77
2022/04/30 15:17:21;;;;;;;;;;;12.60;99.90;;;;;;4991123;28;19934;-76
2022/04/30 15:19:48;;;;;;;;;;;12.70;99.90;;;;;;4990321;28;19932;-77
2022/04/30 15:22:14;;;;;;;;;;;12.70;99.90;;;;;;4992175;28;19969;-76